모두
Nurruwyn Property Airport (Wee Waa New South Wales) YNUR 기상
There is no TAF data available at YNUR. Showing TAF data for YNBR (20 mi E).
NAA 터미널 지역 예측(YNUR에 대한 데이터 없음)
| Date | Time (AEST) | Flight Rules | Wind Dir. | Speed | Type | Height AGL (ft) | Visibility | Remarks | ||||||
|---|---|---|---|---|---|---|---|---|---|---|---|---|---|---|
| 07-9월 | 17:00 | VFR | 260° | 8 kt | Clouds and Visibility are OK | >= 6 miles | ||||||||
| 07-9월 | 16:00 | VFR | 260° | 8 kt | Clouds and Visibility are OK | >= 6 miles | ||||||||
| 07-9월 | 15:00 | VFR | 260° | 8 kt | Clouds and Visibility are OK | >= 6 miles | ||||||||
| 07-9월 | 14:00 | VFR | 260° | 8 kt | Clouds and Visibility are OK | >= 6 miles | ||||||||
| 07-9월 | 13:00 | VFR | 260° | 8 kt | Clouds and Visibility are OK | >= 6 miles | ||||||||
| 07-9월 | 12:00 | VFR | 320° | 8 kt | Clouds and Visibility are OK | >= 6 miles | ||||||||
| 07-9월 | 11:00 | VFR | 320° | 8 kt | Clouds and Visibility are OK | >= 6 miles | ||||||||
| 07-9월 | 10:00 | VFR | 320° | 8 kt | Clouds and Visibility are OK | >= 6 miles | ||||||||
| 07-9월 | 09:00 | VFR | 320° | 8 kt | Clouds and Visibility are OK | >= 6 miles | ||||||||
| 07-9월 | 08:00 | VFR | 140° | 6 kt | Clouds and Visibility are OK | >= 6 miles | ||||||||
There is no METAR data available at YNUR. Showing METAR data for YNBR (20 mi E).
최근 NAA METAR 이력(YNUR에 대한 데이터 없음)
| Date | Time (AEST) | Flight Rules | Wind Dir. | Speed | Type | Height AGL (ft) | Visibility | Temp (°C) | Temp (°F) | Dew Point (°C) | Dew Point (°F) | Rel. Humid. | Pressure | Density Altitude | Remarks |
|---|---|---|---|---|---|---|---|---|---|---|---|---|---|---|---|
| 07-9월 | 08:00 | VFR | 40° | 3 kt | 10000 meters | 11° | 51° | 7° | 44° | 76% | 1023 mb | 19 ft | |||
| 07-9월 | 07:00 | VFR | Calm | 10000 meters | 8° | 46° | 8° | 46° | 100% | 1022 mb | -312 ft | ||||
| 07-9월 | 06:00 | VFR | Calm | 10000 meters | 6° | 42° | 5° | 41° | 93% | 1021 mb | -522 ft | ||||
| 07-9월 | 05:00 | VFR | 130° | 1 kt | 10000 meters | 7° | 44° | 5° | 41° | 87% | 1020 mb | -373 ft | |||
| 07-9월 | 04:00 | VFR | 170° | 2 kt | 10000 meters | 9° | 48° | 7° | 44° | 87% | 1020 mb | -133 ft | |||
| 07-9월 | 03:00 | VFR | 290° | 3 kt | 10000 meters | 8° | 46° | 6° | 42° | 87% | 1019 mb | -223 ft | |||
| 07-9월 | 02:00 | VFR | 30° | 3 kt | 10000 meters | 7° | 44° | 6° | 42° | 93% | 1020 mb | -373 ft | |||
| 07-9월 | 01:00 | VFR | 130° | 1 kt | 10000 meters | 8° | 46° | 6° | 42° | 87% | 1021 mb | -282 ft | |||
| 07-9월 | 00:00 | VFR | 190° | 5 kt | 10000 meters | 9° | 48° | 6° | 42° | 81% | 1021 mb | -162 ft | |||
| 06-9월 | 23:00 | VFR | 140° | 7 kt | 10000 meters | 14° | 57° | 6° | 42° | 58% | 1021 mb | 438 ft | |||
| 06-9월 | 22:00 | VFR | 330° | 2 kt | 10000 meters | 10° | 50° | 6° | 42° | 76% | 1021 mb | -42 ft | |||
| 06-9월 | 21:00 | VFR | 140° | 8 kt | 10000 meters | 16° | 60° | 6° | 42° | 51% | 1020 mb | 707 ft | |||
| 06-9월 | 20:00 | VFR | 160° | 4 kt | 10000 meters | 15° | 59° | 6° | 42° | 55% | 1020 mb | 587 ft | |||
| 06-9월 | 19:00 | VFR | 190° | 5 kt | 10000 meters | 16° | 60° | 7° | 44° | 55% | 1019 mb | 737 ft | |||
| 06-9월 | 18:00 | VFR | 160° | 2 kt | 10000 meters | 20° | 68° | 5° | 41° | 37% | 1018 mb | 1,246 ft | |||
| 06-9월 | 17:00 | VFR | 100° | 4 kt | 10000 meters | 23° | 73° | 5° | 41° | 31% | 1017 mb | 1,636 ft | |||
| 06-9월 | 16:00 | VFR | 100° | 6 kt | 10000 meters | 24° | 75° | 6° | 42° | 31% | 1017 mb | 1,756 ft | |||
| 06-9월 | 15:00 | VFR | 180° | 6 kt | 10000 meters | 24° | 75° | 5° | 41° | 29% | 1017 mb | 1,756 ft | |||
| 06-9월 | 14:00 | VFR | 70° | 4 kt | 10000 meters | 23° | 73° | 6° | 42° | 33% | 1018 mb | 1,606 ft | |||
| 06-9월 | 13:00 | VFR | 190° | 4 kt | 10000 meters | 22° | 71° | 7° | 44° | 38% | 1018 mb | 1,486 ft | |||
| 06-9월 | 12:00 | VFR | 190° | 7 kt | 10000 meters | 21° | 69° | 6° | 42° | 38% | 1019 mb | 1,337 ft | |||
| 06-9월 | 11:00 | VFR | 170° | 10 kt | 10000 meters | 20° | 68° | 6° | 42° | 40% | 1020 mb | 1,187 ft | |||
| 06-9월 | 10:00 | VFR | 160° | 10 kt | 10000 meters | 18° | 64° | 8° | 46° | 52% | 1020 mb | 947 ft | |||
| 06-9월 | 09:00 | VFR | 170° | 12 kt | 10000 meters | 17° | 62° | 8° | 46° | 55% | 1020 mb | 827 ft |
로그인
| 귀하의 브라우저는 지원되지 않습니다.. 브라우저를 업그레이드하세요 |
